Time,TemperatureF,DewpointF,PressureIn,WindDirection,WindDirectionDegrees,WindSpeedMPH,WindSpeedGustMPH,Humidity,HourlyPrecipIn,Conditions,Clouds,dailyrainin,SoftwareType,DateUTC
2013-11-23 00:04:00,13.6,-1.1,30.59,North,0,2.9,2.9,51,0.00,,---,0.00,VWS V14.01,2013-11-23 06:04:00,
2013-11-23 00:09:00,13.6,-1.1,30.59,NNE,22,2.5,4.3,51,0.00,,---,0.00,VWS V14.01,2013-11-23 06:09:00,
2013-11-23 00:15:00,13.6,-1.1,30.59,NW,315,6.5,9.8,51,0.00,,---,0.00,VWS V14.01,2013-11-23 06:15:00,
2013-11-23 00:20:00,13.6,-1.1,30.59,North,0,3.6,3.6,51,0.00,,---,0.00,VWS V14.01,2013-11-23 06:20:00,
2013-11-23 00:26:00,13.6,-1.1,30.59,North,0,2.9,4.9,51,0.00,,---,0.00,VWS V14.01,2013-11-23 06:26:00,
2013-11-23 00:32:00,13.5,-1.3,30.59,NW,315,3.8,4.0,51,0.00,,---,0.00,VWS V14.01,2013-11-23 06:32:00,
2013-11-23 00:37:00,13.5,-1.3,30.59,NNW,338,4.3,6.3,51,0.00,,---,0.00,VWS V14.01,2013-11-23 06:37:00,
2013-11-23 00:43:00,13.1,-1.6,30.59,SSW,202,1.3,3.4,51,0.00,,---,0.00,VWS V14.01,2013-11-23 06:43:00,
2013-11-23 00:48:00,12.9,-1.8,30.59,NNW,338,3.4,5.6,51,0.00,,---,0.00,VWS V14.01,2013-11-23 06:48:00,
2013-11-23 00:54:00,12.9,-1.8,30.59,NNE,22,2.0,6.5,51,0.00,,---,0.00,VWS V14.01,2013-11-23 06:54:00,
2013-11-23 01:00:00,12.9,-1.8,30.59,NNW,338,2.0,3.6,51,0.00,,---,0.00,VWS V14.01,2013-11-23 07:00:00,
2013-11-23 01:05:00,12.9,-1.8,30.59,NNW,338,4.7,7.6,51,0.00,,---,0.00,VWS V14.01,2013-11-23 07:05:00,
2013-11-23 01:11:00,12.7,-2.0,30.62,NNE,22,3.6,4.0,51,0.00,,---,0.00,VWS V14.01,2013-11-23 07:11:00,
2013-11-23 01:16:00,12.6,-2.1,30.62,NW,315,2.7,4.0,51,0.00,,---,0.00,VWS V14.01,2013-11-23 07:16:00,
2013-11-23 01:22:00,12.2,-2.5,30.62,WSW,248,2.5,4.0,51,0.00,,---,0.00,VWS V14.01,2013-11-23 07:22:00,
2013-11-23 01:27:00,12.0,-2.6,30.62,NNE,22,3.4,4.9,51,0.00,,---,0.00,VWS V14.01,2013-11-23 07:27:00,
2013-11-23 01:33:00,11.8,-2.8,30.62,NNW,338,5.4,5.4,51,0.00,,---,0.00,VWS V14.01,2013-11-23 07:33:00,
2013-11-23 01:39:00,11.7,-3.0,30.62,NNW,338,2.5,5.8,51,0.00,,---,0.00,VWS V14.01,2013-11-23 07:39:00,
2013-11-23 01:44:00,11.5,-3.1,30.62,WNW,292,5.8,5.8,51,0.00,,---,0.00,VWS V14.01,2013-11-23 07:44:00,
2013-11-23 01:50:00,11.1,-3.5,30.62,NNW,338,1.6,5.4,51,0.00,,---,0.00,VWS V14.01,2013-11-23 07:50:00,
2013-11-23 01:56:00,10.9,-3.6,30.62,North,0,3.4,5.4,51,0.00,,---,0.00,VWS V14.01,2013-11-23 07:56:00,
2013-11-23 02:01:00,10.8,-3.8,30.62,WNW,292,4.9,5.8,51,0.00,,---,0.00,VWS V14.01,2013-11-23 08:01:00,
2013-11-23 02:07:00,10.8,-3.8,30.62,NNW,338,1.1,2.5,51,0.00,,---,0.00,VWS V14.01,2013-11-23 08:07:00,
2013-11-23 02:12:00,10.6,-4.0,30.62,WNW,292,3.1,4.0,51,0.00,,---,0.00,VWS V14.01,2013-11-23 08:12:00,
2013-11-23 02:18:00,10.2,-4.3,30.62,WNW,292,3.6,4.0,51,0.00,,---,0.00,VWS V14.01,2013-11-23 08:18:00,
2013-11-23 02:24:00,10.0,-4.5,30.62,WNW,292,2.5,4.3,51,0.00,,---,0.00,VWS V14.01,2013-11-23 08:24:00,
2013-11-23 02:29:00,10.0,-4.5,30.65,WNW,292,0.9,3.8,51,0.00,,---,0.00,VWS V14.01,2013-11-23 08:29:00,
2013-11-23 02:35:00,9.7,-4.8,30.65,North,0,3.8,3.8,51,0.00,,---,0.00,VWS V14.01,2013-11-23 08:35:00,
2013-11-23 02:40:00,9.7,-4.8,30.65,WNW,292,1.3,3.1,51,0.00,,---,0.00,VWS V14.01,2013-11-23 08:40:00,
2013-11-23 02:46:00,9.7,-4.8,30.65,WNW,292,1.1,3.4,51,0.00,,---,0.00,VWS V14.01,2013-11-23 08:46:00,
2013-11-23 02:52:00,9.5,-5.0,30.65,NNW,338,1.1,2.0,51,0.00,,---,0.00,VWS V14.01,2013-11-23 08:52:00,
2013-11-23 02:57:00,9.5,-5.0,30.65,WNW,292,2.0,2.9,51,0.00,,---,0.00,VWS V14.01,2013-11-23 08:57:00,
2013-11-23 03:03:00,9.3,-5.1,30.65,NNW,338,1.3,3.6,51,0.00,,---,0.00,VWS V14.01,2013-11-23 09:03:00,
2013-11-23 03:08:00,9.3,-5.1,30.65,NE,45,2.5,5.4,51,0.00,,---,0.00,VWS V14.01,2013-11-23 09:08:00,
2013-11-23 03:14:00,9.3,-5.1,30.65,North,0,0.0,2.2,51,0.00,,---,0.00,VWS V14.01,2013-11-23 09:14:00,
2013-11-23 03:19:00,9.3,-5.1,30.65,SSW,202,2.9,3.4,51,0.00,,---,0.00,VWS V14.01,2013-11-23 09:19:00,
2013-11-23 03:25:00,9.1,-5.3,30.68,WNW,292,1.6,3.8,51,0.00,,---,0.00,VWS V14.01,2013-11-23 09:25:00,
2013-11-23 03:30:00,9.1,-5.3,30.68,SW,225,2.5,4.9,51,0.00,,---,0.00,VWS V14.01,2013-11-23 09:30:00,
2013-11-23 03:35:00,9.1,-5.3,30.68,NW,315,3.4,3.8,51,0.00,,---,0.00,VWS V14.01,2013-11-23 09:35:00,
2013-11-23 03:41:00,9.0,-5.5,30.65,North,0,2.0,2.7,51,0.00,,---,0.00,VWS V14.01,2013-11-23 09:41:00,
2013-11-23 03:46:00,8.8,-5.6,30.65,East,90,1.6,2.7,51,0.00,,---,0.00,VWS V14.01,2013-11-23 09:46:00,
2013-11-23 03:52:00,8.8,-5.6,30.65,NW,315,1.3,4.7,51,0.00,,---,0.00,VWS V14.01,2013-11-23 09:52:00,
2013-11-23 03:57:00,8.8,-5.6,30.65,NE,45,2.9,5.8,51,0.00,,---,0.00,VWS V14.01,2013-11-23 09:57:00,
2013-11-23 04:02:00,8.6,-5.8,30.65,NE,45,4.3,6.0,51,0.00,,---,0.00,VWS V14.01,2013-11-23 10:02:00,
2013-11-23 04:07:00,8.6,-5.8,30.65,WNW,292,2.9,2.9,51,0.00,,---,0.00,VWS V14.01,2013-11-23 10:07:00,
2013-11-23 04:13:00,8.6,-5.8,30.65,NNE,22,3.4,4.7,51,0.00,,---,0.00,VWS V14.01,2013-11-23 10:13:00,
2013-11-23 04:18:00,8.6,-5.8,30.65,NNE,22,2.7,2.7,51,0.00,,---,0.00,VWS V14.01,2013-11-23 10:18:00,
2013-11-23 04:23:00,8.4,-6.0,30.65,ENE,68,6.0,6.0,51,0.00,,---,0.00,VWS V14.01,2013-11-23 10:23:00,
2013-11-23 04:28:00,8.2,-6.2,30.68,WNW,292,3.8,3.8,51,0.00,,---,0.00,VWS V14.01,2013-11-23 10:28:00,
2013-11-23 04:34:00,8.2,-6.2,30.68,West,270,2.5,2.7,51,0.00,,---,0.00,VWS V14.01,2013-11-23 10:34:00,
2013-11-23 04:39:00,8.2,-6.2,30.68,NNE,22,2.9,3.8,51,0.00,,---,0.00,VWS V14.01,2013-11-23 10:39:00,
2013-11-23 04:44:00,8.2,-6.2,30.68,NNW,338,0.9,2.9,51,0.00,,---,0.00,VWS V14.01,2013-11-23 10:44:00,
2013-11-23 04:50:00,8.2,-6.2,30.68,ENE,68,2.0,2.0,51,0.00,,---,0.00,VWS V14.01,2013-11-23 10:50:00,
2013-11-23 04:55:00,8.1,-6.3,30.68,WNW,292,1.1,3.1,51,0.00,,---,0.00,VWS V14.01,2013-11-23 10:55:00,
2013-11-23 05:00:00,8.1,-6.3,30.68,NW,315,0.0,2.5,51,0.00,,---,0.00,VWS V14.01,2013-11-23 11:00:00,
2013-11-23 05:05:00,8.1,-6.3,30.68,WNW,292,2.7,2.7,51,0.00,,---,0.00,VWS V14.01,2013-11-23 11:05:00,
2013-11-23 05:10:00,8.1,-6.3,30.68,North,0,5.6,5.6,51,0.00,,---,0.00,VWS V14.01,2013-11-23 11:10:00,
2013-11-23 05:15:00,8.1,-6.3,30.68,NNW,338,2.7,2.9,51,0.00,,---,0.00,VWS V14.01,2013-11-23 11:15:00,
2013-11-23 05:21:00,8.1,-6.3,30.68,North,0,1.1,3.1,51,0.00,,---,0.00,VWS V14.01,2013-11-23 11:21:00,
2013-11-23 05:26:00,8.2,-6.2,30.68,North,0,2.9,3.4,51,0.00,,---,0.00,VWS V14.01,2013-11-23 11:26:00,
2013-11-23 05:31:00,8.1,-6.3,30.68,West,270,3.4,6.0,51,0.00,,---,0.00,VWS V14.01,2013-11-23 11:31:00,
2013-11-23 05:36:00,8.1,-6.3,30.68,WNW,292,2.5,3.8,51,0.00,,---,0.00,VWS V14.01,2013-11-23 11:36:00,
2013-11-23 05:42:00,8.1,-6.3,30.68,NNE,22,2.9,3.6,51,0.00,,---,0.00,VWS V14.01,2013-11-23 11:42:00,
2013-11-23 05:48:00,8.1,-6.3,30.68,WSW,248,2.9,3.4,51,0.00,,---,0.00,VWS V14.01,2013-11-23 11:48:00,
2013-11-23 05:53:00,7.9,-6.5,30.68,NW,315,2.0,2.7,51,0.00,,---,0.00,VWS V14.01,2013-11-23 11:53:00,
2013-11-23 05:59:00,7.9,-6.5,30.71,WNW,292,4.3,4.3,51,0.00,,---,0.00,VWS V14.01,2013-11-23 11:59:00,
2013-11-23 06:05:00,8.1,-6.3,30.71,North,0,2.7,2.7,51,0.00,,---,0.00,VWS V14.01,2013-11-23 12:05:00,
2013-11-23 06:10:00,7.9,-6.5,30.71,ENE,68,1.6,3.6,51,0.00,,---,0.00,VWS V14.01,2013-11-23 12:10:00,
2013-11-23 06:16:00,7.9,-6.5,30.71,NNW,338,2.9,5.4,51,0.00,,---,0.00,VWS V14.01,2013-11-23 12:16:00,
2013-11-23 06:21:00,7.9,-6.5,30.71,WNW,292,1.3,2.2,51,0.00,,---,0.00,VWS V14.01,2013-11-23 12:21:00,
2013-11-23 06:27:00,7.9,-6.5,30.71,WSW,248,1.6,2.7,51,0.00,,---,0.00,VWS V14.01,2013-11-23 12:27:00,
2013-11-23 06:33:00,7.9,-6.5,30.71,WSW,248,0.9,2.0,51,0.00,,---,0.00,VWS V14.01,2013-11-23 12:33:00,
2013-11-23 06:38:00,7.7,-6.7,30.71,North,0,2.2,2.9,51,0.00,,---,0.00,VWS V14.01,2013-11-23 12:38:00,
2013-11-23 06:44:00,7.9,-6.5,30.71,WNW,292,0.0,1.1,51,0.00,,---,0.00,VWS V14.01,2013-11-23 12:44:00,
2013-11-23 06:49:00,7.7,-6.7,30.71,SE,135,0.0,2.7,51,0.00,,---,0.00,VWS V14.01,2013-11-23 12:49:00,
2013-11-23 06:55:00,7.7,-6.7,30.71,WNW,292,1.3,1.3,51,0.00,,---,0.00,VWS V14.01,2013-11-23 12:55:00,
2013-11-23 07:00:00,7.5,-6.8,30.71,North,0,1.6,3.4,51,0.00,,---,0.00,VWS V14.01,2013-11-23 13:00:00,
2013-11-23 07:06:00,7.5,-6.8,30.71,West,270,2.2,2.7,51,0.00,,---,0.00,VWS V14.01,2013-11-23 13:06:00,
2013-11-23 07:12:00,7.5,-6.8,30.74,NW,315,2.5,2.5,51,0.00,,---,0.00,VWS V14.01,2013-11-23 13:12:00,
2013-11-23 07:17:00,7.5,-6.8,30.74,WNW,292,1.3,2.2,51,0.00,,---,0.00,VWS V14.01,2013-11-23 13:17:00,
2013-11-23 07:22:00,7.5,-6.8,30.74,WNW,292,2.5,2.5,51,0.00,,---,0.00,VWS V14.01,2013-11-23 13:22:00,
2013-11-23 07:27:00,7.3,-7.0,30.74,NW,315,1.1,3.1,51,0.00,,---,0.00,VWS V14.01,2013-11-23 13:27:00,
2013-11-23 07:32:00,7.3,-7.0,30.74,West,270,3.8,4.0,51,0.00,,---,0.00,VWS V14.01,2013-11-23 13:32:00,
2013-11-23 07:38:00,7.5,-6.8,30.74,WNW,292,2.9,4.0,51,0.00,,---,0.00,VWS V14.01,2013-11-23 13:38:00,
2013-11-23 07:43:00,7.5,-6.8,30.74,WNW,292,2.7,4.7,51,0.00,,---,0.00,VWS V14.01,2013-11-23 13:43:00,
2013-11-23 07:48:00,7.5,-6.8,30.74,West,270,2.2,3.6,51,0.00,,---,0.00,VWS V14.01,2013-11-23 13:48:00,
2013-11-23 07:54:00,7.5,-6.8,30.74,NW,315,1.1,4.3,51,0.00,,---,0.00,VWS V14.01,2013-11-23 13:54:00,
2013-11-23 07:59:00,7.5,-6.8,30.74,WNW,292,2.2,2.7,51,0.00,,---,0.00,VWS V14.01,2013-11-23 13:59:00,
2013-11-23 08:06:00,7.7,-6.7,30.74,WSW,248,2.0,3.4,51,0.00,,---,0.00,VWS V14.01,2013-11-23 14:06:00,
2013-11-23 08:11:00,7.7,-6.7,30.77,WNW,292,2.0,5.6,51,0.00,,---,0.00,VWS V14.01,2013-11-23 14:11:00,
2013-11-23 08:16:00,7.7,-6.7,30.77,WNW,292,2.5,2.5,51,0.00,,---,0.00,VWS V14.01,2013-11-23 14:16:00,
2013-11-23 08:23:00,7.9,-6.5,30.77,NW,315,2.5,2.5,51,0.00,,---,0.00,VWS V14.01,2013-11-23 14:23:00,
2013-11-23 08:28:00,8.1,-6.3,30.77,SSW,202,2.5,6.3,51,0.00,,---,0.00,VWS V14.01,2013-11-23 14:28:00,
2013-11-23 08:33:00,8.2,-6.2,30.77,NNE,22,3.4,3.8,51,0.00,,---,0.00,VWS V14.01,2013-11-23 14:33:00,
2013-11-23 08:39:00,8.4,-6.0,30.77,West,270,3.1,5.4,51,0.00,,---,0.00,VWS V14.01,2013-11-23 14:39:00,
2013-11-23 08:44:00,8.4,-6.0,30.77,WNW,292,2.2,5.8,51,0.00,,---,0.00,VWS V14.01,2013-11-23 14:44:00,
2013-11-23 08:50:00,8.6,-5.8,30.77,WSW,248,3.4,3.4,51,0.00,,---,0.00,VWS V14.01,2013-11-23 14:50:00,
2013-11-23 08:55:00,8.6,-5.8,30.77,West,270,4.7,4.7,51,0.00,,---,0.00,VWS V14.01,2013-11-23 14:55:00,
2013-11-23 09:01:00,8.8,-5.6,30.77,NW,315,2.7,8.1,51,0.00,,---,0.00,VWS V14.01,2013-11-23 15:01:00,
2013-11-23 09:06:00,9.3,-5.1,30.77,WNW,292,2.5,4.9,51,0.00,,---,0.00,VWS V14.01,2013-11-23 15:06:00,
2013-11-23 09:12:00,10.4,-4.1,30.77,WNW,292,3.1,4.3,51,0.00,,---,0.00,VWS V14.01,2013-11-23 15:12:00,
2013-11-23 09:17:00,10.2,-4.3,30.77,North,0,6.5,6.5,51,0.00,,---,0.00,VWS V14.01,2013-11-23 15:17:00,
2013-11-23 09:22:00,9.7,-4.8,30.77,SW,225,1.6,3.4,51,0.00,,---,0.00,VWS V14.01,2013-11-23 15:22:00,
2013-11-23 09:28:00,9.7,-4.8,30.77,SW,225,2.7,4.7,51,0.00,,---,0.00,VWS V14.01,2013-11-23 15:28:00,
2013-11-23 09:33:00,9.9,-4.6,30.77,WNW,292,2.7,4.3,51,0.00,,---,0.00,VWS V14.01,2013-11-23 15:33:00,
2013-11-23 09:39:00,9.9,-4.6,30.77,West,270,4.5,6.0,51,0.00,,---,0.00,VWS V14.01,2013-11-23 15:39:00,
2013-11-23 09:44:00,9.9,-4.6,30.77,ESE,112,2.5,4.0,51,0.00,,---,0.00,VWS V14.01,2013-11-23 15:44:00,
2013-11-23 09:50:00,10.4,-4.1,30.77,NNW,338,3.1,3.6,51,0.00,,---,0.00,VWS V14.01,2013-11-23 15:50:00,
2013-11-23 09:56:00,10.8,-3.8,30.77,NNE,22,4.9,4.9,51,0.00,,---,0.00,VWS V14.01,2013-11-23 15:56:00,
2013-11-23 10:01:00,10.9,-3.6,30.77,WNW,292,4.3,4.3,51,0.00,,---,0.00,VWS V14.01,2013-11-23 16:01:00,
2013-11-23 10:07:00,11.1,-3.5,30.77,WSW,248,3.4,3.8,51,0.00,,---,0.00,VWS V14.01,2013-11-23 16:07:00,
2013-11-23 10:12:00,11.1,-3.5,30.77,NW,315,1.3,2.9,51,0.00,,---,0.00,VWS V14.01,2013-11-23 16:12:00,
2013-11-23 10:18:00,11.1,-3.5,30.77,WNW,292,3.8,3.8,51,0.00,,---,0.00,VWS V14.01,2013-11-23 16:18:00,
2013-11-23 10:24:00,11.8,-2.8,30.77,SSE,158,2.9,2.9,51,0.00,,---,0.00,VWS V14.01,2013-11-23 16:24:00,
2013-11-23 10:29:00,12.0,-2.6,30.77,NNE,22,1.1,2.5,51,0.00,,---,0.00,VWS V14.01,2013-11-23 16:29:00,
2013-11-23 10:35:00,12.2,-2.5,30.77,NE,45,4.0,4.3,51,0.00,,---,0.00,VWS V14.01,2013-11-23 16:35:00,
2013-11-23 10:41:00,12.7,-2.0,30.77,NW,315,7.6,7.6,51,0.00,,---,0.00,VWS V14.01,2013-11-23 16:41:00,
2013-11-23 10:46:00,12.7,-2.0,30.77,WNW,292,2.9,4.0,51,0.00,,---,0.00,VWS V14.01,2013-11-23 16:46:00,
2013-11-23 10:51:00,12.9,-1.8,30.77,West,270,1.6,2.5,51,0.00,,---,0.00,VWS V14.01,2013-11-23 16:51:00,
2013-11-23 10:56:00,12.9,-1.8,30.77,WSW,248,3.4,4.9,51,0.00,,---,0.00,VWS V14.01,2013-11-23 16:56:00,
2013-11-23 11:02:00,12.9,-1.8,30.77,NNE,22,4.7,6.3,51,0.00,,---,0.00,VWS V14.01,2013-11-23 17:02:00,
2013-11-23 11:07:00,13.5,-1.3,30.77,SW,225,2.7,4.7,51,0.00,,---,0.00,VWS V14.01,2013-11-23 17:07:00,
2013-11-23 11:12:00,13.3,-1.5,30.77,NE,45,2.5,3.4,51,0.00,,---,0.00,VWS V14.01,2013-11-23 17:12:00,
2013-11-23 11:17:00,13.5,-1.3,30.77,NNE,22,4.7,5.4,51,0.00,,---,0.00,VWS V14.01,2013-11-23 17:17:00,
2013-11-23 11:23:00,13.8,-0.9,30.77,West,270,4.3,5.8,51,0.00,,---,0.00,VWS V14.01,2013-11-23 17:23:00,
2013-11-23 11:28:00,13.8,-0.9,30.77,WSW,248,4.7,4.7,51,0.00,,---,0.00,VWS V14.01,2013-11-23 17:28:00,
2013-11-23 11:34:00,13.6,-1.1,30.77,NE,45,3.8,4.0,51,0.00,,---,0.00,VWS V14.01,2013-11-23 17:34:00,
2013-11-23 11:39:00,14.2,0.2,30.77,NNE,22,3.6,3.6,53,0.00,,---,0.00,VWS V14.01,2013-11-23 17:39:00,
2013-11-23 11:44:00,14.4,0.4,30.77,SSE,158,2.7,6.5,53,0.00,,---,0.00,VWS V14.01,2013-11-23 17:44:00,
2013-11-23 11:50:00,14.4,0.0,30.77,NNW,338,2.5,3.6,52,0.00,,---,0.00,VWS V14.01,2013-11-23 17:50:00,
2013-11-23 11:55:00,14.4,-0.9,30.77,NNW,338,2.5,2.9,50,0.00,,---,0.00,VWS V14.01,2013-11-23 17:55:00,
2013-11-23 12:00:00,14.5,-0.3,30.77,NNE,22,2.9,2.9,51,0.00,,---,0.00,VWS V14.01,2013-11-23 18:00:00,
2013-11-23 12:05:00,14.9,-0.4,30.77,South,180,5.4,6.5,50,0.00,,---,0.00,VWS V14.01,2013-11-23 18:05:00,
2013-11-23 12:10:00,15.1,-0.6,30.74,ENE,68,2.9,4.9,49,0.00,,---,0.00,VWS V14.01,2013-11-23 18:10:00,
2013-11-23 12:16:00,15.4,0.1,30.74,North,0,3.4,3.4,50,0.00,,---,0.00,VWS V14.01,2013-11-23 18:16:00,
2013-11-23 12:21:00,15.8,0.0,30.74,North,0,2.0,4.0,49,0.00,,---,0.00,VWS V14.01,2013-11-23 18:21:00,
2013-11-23 12:26:00,15.8,0.0,30.77,West,270,1.6,7.6,49,0.00,,---,0.00,VWS V14.01,2013-11-23 18:26:00,
2013-11-23 12:31:00,16.2,-0.1,30.77,WNW,292,3.4,6.5,48,0.00,,---,0.00,VWS V14.01,2013-11-23 18:31:00,
2013-11-23 12:37:00,16.5,0.3,30.77,West,270,4.3,4.3,48,0.00,,---,0.00,VWS V14.01,2013-11-23 18:37:00,
2013-11-23 12:42:00,16.5,-0.2,30.74,West,270,3.4,3.6,47,0.00,,---,0.00,VWS V14.01,2013-11-23 18:42:00,
2013-11-23 12:47:00,16.5,-0.2,30.74,NNW,338,3.1,3.4,47,0.00,,---,0.00,VWS V14.01,2013-11-23 18:47:00,
2013-11-23 12:52:00,16.9,-0.3,30.74,WNW,292,1.3,3.8,46,0.00,,---,0.00,VWS V14.01,2013-11-23 18:52:00,
2013-11-23 12:57:00,16.7,-0.9,30.74,SSE,158,2.0,3.6,45,0.00,,---,0.00,VWS V14.01,2013-11-23 18:57:00,
2013-11-23 13:02:00,16.7,-0.9,30.74,NW,315,2.5,3.6,45,0.00,,---,0.00,VWS V14.01,2013-11-23 19:02:00,
2013-11-23 13:08:00,16.7,-0.9,30.74,NE,45,1.3,2.2,45,0.00,,---,0.00,VWS V14.01,2013-11-23 19:08:00,
2013-11-23 13:13:00,16.7,-0.9,30.74,NE,45,4.7,4.7,45,0.00,,---,0.00,VWS V14.01,2013-11-23 19:13:00,
2013-11-23 13:19:00,16.9,-0.8,30.74,SSW,202,4.0,4.0,45,0.00,,---,0.00,VWS V14.01,2013-11-23 19:19:00,
2013-11-23 13:24:00,16.9,-0.8,30.74,WNW,292,3.6,5.8,45,0.00,,---,0.00,VWS V14.01,2013-11-23 19:24:00,
2013-11-23 13:29:00,16.9,-0.8,30.74,NW,315,1.1,2.2,45,0.00,,---,0.00,VWS V14.01,2013-11-23 19:29:00,
2013-11-23 13:34:00,17.1,-0.6,30.74,SW,225,5.4,5.4,45,0.00,,---,0.00,VWS V14.01,2013-11-23 19:34:00,
2013-11-23 13:39:00,16.9,-0.8,30.74,West,270,8.5,8.5,45,0.00,,---,0.00,VWS V14.01,2013-11-23 19:39:00,
2013-11-23 13:44:00,16.9,-0.8,30.74,NNE,22,2.9,3.4,45,0.00,,---,0.00,VWS V14.01,2013-11-23 19:44:00,
2013-11-23 13:51:00,16.9,-1.2,30.74,SSW,202,2.0,2.0,44,0.00,,---,0.00,VWS V14.01,2013-11-23 19:51:00,
2013-11-23 13:56:00,17.1,-1.1,30.74,WNW,292,2.5,2.5,44,0.00,,---,0.00,VWS V14.01,2013-11-23 19:56:00,
2013-11-23 14:01:00,16.9,-1.2,30.74,WNW,292,5.6,5.6,44,0.00,,---,0.00,VWS V14.01,2013-11-23 20:01:00,
2013-11-23 14:06:00,16.9,-1.2,30.74,WNW,292,5.4,6.5,44,0.00,,---,0.00,VWS V14.01,2013-11-23 20:06:00,
2013-11-23 14:12:00,16.7,-1.4,30.74,West,270,2.9,4.9,44,0.00,,---,0.00,VWS V14.01,2013-11-23 20:12:00,
2013-11-23 14:17:00,16.7,-1.4,30.74,West,270,1.6,3.6,44,0.00,,---,0.00,VWS V14.01,2013-11-23 20:17:00,
2013-11-23 14:22:00,16.9,-1.2,30.74,NE,45,3.8,5.6,44,0.00,,---,0.00,VWS V14.01,2013-11-23 20:22:00,
2013-11-23 14:27:00,16.9,-1.2,30.74,NNE,22,6.0,6.0,44,0.00,,---,0.00,VWS V14.01,2013-11-23 20:27:00,
2013-11-23 14:33:00,16.9,-1.2,30.74,WSW,248,1.3,4.0,44,0.00,,---,0.00,VWS V14.01,2013-11-23 20:33:00,
2013-11-23 14:39:00,16.9,-1.2,30.74,WNW,292,3.1,3.8,44,0.00,,---,0.00,VWS V14.01,2013-11-23 20:39:00,
2013-11-23 14:44:00,16.9,-1.2,30.74,NNW,338,3.1,5.4,44,0.00,,---,0.00,VWS V14.01,2013-11-23 20:44:00,
2013-11-23 14:49:00,16.9,-1.2,30.74,West,270,2.9,4.9,44,0.00,,---,0.00,VWS V14.01,2013-11-23 20:49:00,
2013-11-23 14:54:00,16.9,-1.7,30.74,NNE,22,1.1,3.8,43,0.00,,---,0.00,VWS V14.01,2013-11-23 20:54:00,
2013-11-23 14:59:00,16.9,-1.7,30.74,ENE,68,2.7,2.7,43,0.00,,---,0.00,VWS V14.01,2013-11-23 20:59:00,
2013-11-23 15:05:00,16.9,-1.7,30.74,North,0,2.0,6.5,43,0.00,,---,0.00,VWS V14.01,2013-11-23 21:05:00,
2013-11-23 15:11:00,16.9,-1.7,30.74,WSW,248,1.6,4.0,43,0.00,,---,0.00,VWS V14.01,2013-11-23 21:11:00,
2013-11-23 15:16:00,16.9,-1.7,30.74,West,270,3.6,6.5,43,0.00,,---,0.00,VWS V14.01,2013-11-23 21:16:00,
2013-11-23 15:21:00,16.7,-2.4,30.74,NW,315,2.9,6.3,42,0.00,,---,0.00,VWS V14.01,2013-11-23 21:21:00,
2013-11-23 15:27:00,16.9,-1.7,30.74,NNW,338,2.7,5.8,43,0.00,,---,0.00,VWS V14.01,2013-11-23 21:27:00,
2013-11-23 15:32:00,16.9,-2.2,30.74,North,0,2.2,2.5,42,0.00,,---,0.00,VWS V14.01,2013-11-23 21:32:00,
2013-11-23 15:37:00,16.9,-1.7,30.74,NW,315,2.5,2.5,43,0.00,,---,0.00,VWS V14.01,2013-11-23 21:37:00,
2013-11-23 15:43:00,16.9,-1.7,30.74,NW,315,3.1,3.4,43,0.00,,---,0.00,VWS V14.01,2013-11-23 21:43:00,
2013-11-23 15:48:00,16.9,-1.7,30.74,NW,315,2.7,2.9,43,0.00,,---,0.00,VWS V14.01,2013-11-23 21:48:00,
2013-11-23 15:53:00,16.9,-1.7,30.74,WNW,292,2.7,3.4,43,0.00,,---,0.00,VWS V14.01,2013-11-23 21:53:00,
2013-11-23 15:58:00,16.7,-2.4,30.74,WSW,248,2.9,4.3,42,0.00,,---,0.00,VWS V14.01,2013-11-23 21:58:00,
2013-11-23 16:04:00,16.5,-2.6,30.74,WNW,292,3.1,3.1,42,0.00,,---,0.00,VWS V14.01,2013-11-23 22:04:00,
2013-11-23 16:10:00,16.3,-3.2,30.71,NW,315,1.3,3.1,41,0.00,,---,0.00,VWS V14.01,2013-11-23 22:10:00,
2013-11-23 16:16:00,16.2,-3.4,30.71,West,270,2.0,3.6,41,0.00,,---,0.00,VWS V14.01,2013-11-23 22:16:00,
2013-11-23 16:22:00,16.2,-3.4,30.71,WNW,292,1.1,2.9,41,0.00,,---,0.00,VWS V14.01,2013-11-23 22:22:00,
2013-11-23 16:27:00,16.0,-3.5,30.71,West,270,3.1,3.1,41,0.00,,---,0.00,VWS V14.01,2013-11-23 22:27:00,
2013-11-23 16:33:00,15.8,-3.7,30.71,North,0,2.5,4.0,41,0.00,,---,0.00,VWS V14.01,2013-11-23 22:33:00,
2013-11-23 16:38:00,15.8,-3.7,30.71,SSE,158,0.9,2.0,41,0.00,,---,0.00,VWS V14.01,2013-11-23 22:38:00,
2013-11-23 16:44:00,15.8,-3.7,30.71,NW,315,2.0,3.4,41,0.00,,---,0.00,VWS V14.01,2013-11-23 22:44:00,
2013-11-23 16:49:00,15.4,-4.0,30.71,WSW,248,4.0,4.3,41,0.00,,---,0.00,VWS V14.01,2013-11-23 22:49:00,
2013-11-23 16:54:00,15.4,-4.0,30.71,NW,315,3.1,3.1,41,0.00,,---,0.00,VWS V14.01,2013-11-23 22:54:00,
2013-11-23 17:00:00,15.4,-4.0,30.71,SSW,202,3.8,5.4,41,0.00,,---,0.00,VWS V14.01,2013-11-23 23:00:00,
2013-11-23 17:05:00,15.4,-4.0,30.71,North,0,1.3,3.1,41,0.00,,---,0.00,VWS V14.01,2013-11-23 23:05:00,
2013-11-23 17:10:00,15.3,-4.2,30.71,WNW,292,2.0,2.0,41,0.00,,---,0.00,VWS V14.01,2013-11-23 23:10:00,
2013-11-23 17:15:00,15.3,-3.7,30.71,West,270,1.3,1.3,42,0.00,,---,0.00,VWS V14.01,2013-11-23 23:15:00,
2013-11-23 17:20:00,15.1,-3.9,30.71,NW,315,1.1,4.7,42,0.00,,---,0.00,VWS V14.01,2013-11-23 23:20:00,
2013-11-23 17:26:00,15.1,-3.9,30.71,WNW,292,3.8,3.8,42,0.00,,---,0.00,VWS V14.01,2013-11-23 23:26:00,
2013-11-23 17:32:00,15.1,-3.9,30.71,WSW,248,1.6,3.1,42,0.00,,---,0.00,VWS V14.01,2013-11-23 23:32:00,
2013-11-23 17:38:00,15.1,-3.9,30.71,WNW,292,2.2,2.5,42,0.00,,---,0.00,VWS V14.01,2013-11-23 23:38:00,
2013-11-23 17:44:00,14.9,-3.5,30.71,North,0,2.5,3.6,43,0.00,,---,0.00,VWS V14.01,2013-11-23 23:44:00,
2013-11-23 17:49:00,14.9,-3.5,30.71,West,270,2.7,2.7,43,0.00,,---,0.00,VWS V14.01,2013-11-23 23:49:00,
2013-11-23 17:54:00,14.9,-3.5,30.71,WNW,292,2.9,2.9,43,0.00,,---,0.00,VWS V14.01,2013-11-23 23:54:00,
2013-11-23 17:59:00,14.9,-3.5,30.71,NW,315,0.0,1.6,43,0.00,,---,0.00,VWS V14.01,2013-11-23 23:59:00,
2013-11-23 18:04:00,14.7,-3.7,30.71,WSW,248,1.1,2.9,43,0.00,,---,0.00,VWS V14.01,2013-11-24 00:04:00,
2013-11-23 18:09:00,14.5,-3.9,30.71,West,270,3.1,3.1,43,0.00,,---,0.00,VWS V14.01,2013-11-24 00:09:00,
2013-11-23 18:14:00,14.5,-3.9,30.71,WSW,248,2.0,2.2,43,0.00,,---,0.00,VWS V14.01,2013-11-24 00:14:00,
2013-11-23 18:19:00,14.5,-3.9,30.71,West,270,0.9,2.5,43,0.00,,---,0.00,VWS V14.01,2013-11-24 00:19:00,
2013-11-23 18:24:00,14.5,-3.4,30.71,NW,315,1.3,2.5,44,0.00,,---,0.00,VWS V14.01,2013-11-24 00:24:00,
2013-11-23 18:29:00,14.5,-3.4,30.71,NW,315,2.5,2.5,44,0.00,,---,0.00,VWS V14.01,2013-11-24 00:29:00,
2013-11-23 18:34:00,14.5,-3.4,30.71,West,270,1.1,2.5,44,0.00,,---,0.00,VWS V14.01,2013-11-24 00:34:00,
2013-11-23 18:39:00,14.4,-3.6,30.71,West,270,3.4,3.4,44,0.00,,---,0.00,VWS V14.01,2013-11-24 00:39:00,
2013-11-23 18:44:00,14.4,-3.6,30.71,NW,315,1.3,2.0,44,0.00,,---,0.00,VWS V14.01,2013-11-24 00:44:00,
2013-11-23 18:51:00,14.4,-3.6,30.71,West,270,0.0,1.1,44,0.00,,---,0.00,VWS V14.01,2013-11-24 00:51:00,
2013-11-23 18:56:00,14.4,-3.6,30.71,NNE,22,0.9,1.3,44,0.00,,---,0.00,VWS V14.01,2013-11-24 00:56:00,
2013-11-23 19:01:00,14.2,-3.7,30.71,NW,315,1.3,2.5,44,0.00,,---,0.00,VWS V14.01,2013-11-24 01:01:00,
2013-11-23 19:06:00,14.2,-3.7,30.71,WNW,292,1.3,2.5,44,0.00,,---,0.00,VWS V14.01,2013-11-24 01:06:00,
2013-11-23 19:11:00,14.2,-3.7,30.71,West,270,2.0,2.0,44,0.00,,---,0.00,VWS V14.01,2013-11-24 01:11:00,
2013-11-23 19:16:00,14.2,-3.7,30.71,WNW,292,1.6,1.6,44,0.00,,---,0.00,VWS V14.01,2013-11-24 01:16:00,
2013-11-23 19:21:00,14.2,-3.7,30.71,NW,315,2.9,2.9,44,0.00,,---,0.00,VWS V14.01,2013-11-24 01:21:00,
2013-11-23 19:26:00,14.2,-3.7,30.71,WNW,292,2.5,2.5,44,0.00,,---,0.00,VWS V14.01,2013-11-24 01:26:00,
2013-11-23 19:31:00,14.2,-3.7,30.71,West,270,2.9,2.9,44,0.00,,---,0.00,VWS V14.01,2013-11-24 01:31:00,
2013-11-23 19:36:00,14.0,-3.4,30.71,NW,315,0.9,2.7,45,0.00,,---,0.00,VWS V14.01,2013-11-24 01:36:00,
2013-11-23 19:41:00,14.0,-3.4,30.71,NW,315,2.0,2.7,45,0.00,,---,0.00,VWS V14.01,2013-11-24 01:41:00,
2013-11-23 19:46:00,14.0,-3.4,30.71,WNW,292,3.4,3.4,45,0.00,,---,0.00,VWS V14.01,2013-11-24 01:46:00,
2013-11-23 19:51:00,13.8,-3.6,30.71,SW,225,2.7,2.7,45,0.00,,---,0.00,VWS V14.01,2013-11-24 01:51:00,
2013-11-23 19:56:00,13.8,-3.6,30.71,SW,225,1.6,2.5,45,0.00,,---,0.00,VWS V14.01,2013-11-24 01:56:00,
2013-11-23 20:02:00,13.8,-3.6,30.71,NW,315,0.0,0.9,45,0.00,,---,0.00,VWS V14.01,2013-11-24 02:02:00,
2013-11-23 20:08:00,13.8,-3.6,30.71,NW,315,2.0,2.9,45,0.00,,---,0.00,VWS V14.01,2013-11-24 02:08:00,
2013-11-23 20:13:00,13.8,-3.6,30.71,North,0,2.0,3.4,45,0.00,,---,0.00,VWS V14.01,2013-11-24 02:13:00,
2013-11-23 20:18:00,13.8,-3.6,30.71,West,270,3.1,3.4,45,0.00,,---,0.00,VWS V14.01,2013-11-24 02:18:00,
2013-11-23 20:23:00,13.8,-3.6,30.71,WNW,292,1.1,1.3,45,0.00,,---,0.00,VWS V14.01,2013-11-24 02:23:00,
2013-11-23 20:28:00,13.8,-3.6,30.71,North,0,1.1,2.2,45,0.00,,---,0.00,VWS V14.01,2013-11-24 02:28:00,
2013-11-23 20:33:00,13.8,-3.6,30.71,WNW,292,2.7,2.7,45,0.00,,---,0.00,VWS V14.01,2013-11-24 02:33:00,
2013-11-23 20:38:00,13.8,-3.6,30.71,West,270,2.5,3.1,45,0.00,,---,0.00,VWS V14.01,2013-11-24 02:38:00,
2013-11-23 20:43:00,13.8,-3.6,30.68,West,270,2.0,2.0,45,0.00,,---,0.00,VWS V14.01,2013-11-24 02:43:00,
2013-11-23 20:48:00,13.8,-3.6,30.68,WNW,292,2.0,2.5,45,0.00,,---,0.00,VWS V14.01,2013-11-24 02:48:00,
2013-11-23 20:53:00,13.8,-3.6,30.68,West,270,2.7,2.7,45,0.00,,---,0.00,VWS V14.01,2013-11-24 02:53:00,
2013-11-23 20:58:00,13.8,-3.6,30.68,NW,315,1.6,2.2,45,0.00,,---,0.00,VWS V14.01,2013-11-24 02:58:00,
2013-11-23 21:03:00,13.8,-3.6,30.68,SSW,202,0.9,2.2,45,0.00,,---,0.00,VWS V14.01,2013-11-24 03:03:00,
2013-11-23 21:08:00,13.8,-3.6,30.68,West,270,1.1,2.0,45,0.00,,---,0.00,VWS V14.01,2013-11-24 03:08:00,
2013-11-23 21:13:00,13.8,-3.6,30.68,West,270,1.1,2.2,45,0.00,,---,0.00,VWS V14.01,2013-11-24 03:13:00,
2013-11-23 21:18:00,13.8,-3.6,30.68,WNW,292,0.0,1.6,45,0.00,,---,0.00,VWS V14.01,2013-11-24 03:18:00,
2013-11-23 21:23:00,12.6,-4.7,30.68,NW,315,2.0,2.9,45,0.00,,---,0.00,VWS V14.01,2013-11-24 03:23:00,
2013-11-23 21:28:00,12.6,-4.7,30.68,NNW,338,0.9,2.0,45,0.00,,---,0.00,VWS V14.01,2013-11-24 03:28:00,
2013-11-23 21:33:00,12.6,-4.7,30.68,West,270,2.0,2.2,45,0.00,,---,0.00,VWS V14.01,2013-11-24 03:33:00,
2013-11-23 21:39:00,12.6,-4.7,30.68,WNW,292,2.5,2.5,45,0.00,,---,0.00,VWS V14.01,2013-11-24 03:39:00,
2013-11-23 21:44:00,12.6,-4.7,30.68,NW,315,2.7,2.9,45,0.00,,---,0.00,VWS V14.01,2013-11-24 03:44:00,
2013-11-23 21:50:00,12.6,-4.7,30.68,NNW,338,3.8,3.8,45,0.00,,---,0.00,VWS V14.01,2013-11-24 03:50:00,
2013-11-23 21:55:00,12.6,-4.7,30.68,NW,315,0.0,2.2,45,0.00,,---,0.00,VWS V14.01,2013-11-24 03:55:00,
2013-11-23 22:00:00,12.6,-4.7,30.68,WNW,292,1.1,1.3,45,0.00,,---,0.00,VWS V14.01,2013-11-24 04:00:00,
2013-11-23 22:05:00,11.8,-5.4,30.68,WNW,292,2.0,2.5,45,0.00,,---,0.00,VWS V14.01,2013-11-24 04:05:00,
2013-11-23 22:10:00,11.8,-5.4,30.68,NW,315,0.9,1.3,45,0.00,,---,0.00,VWS V14.01,2013-11-24 04:10:00,
2013-11-23 22:15:00,11.8,-5.4,30.68,WNW,292,0.9,1.3,45,0.00,,---,0.00,VWS V14.01,2013-11-24 04:15:00,
2013-11-23 22:20:00,11.8,-5.4,30.68,NNW,338,1.6,1.6,45,0.00,,---,0.00,VWS V14.01,2013-11-24 04:20:00,
2013-11-23 22:25:00,11.7,-5.6,30.68,WNW,292,1.3,1.6,45,0.00,,---,0.00,VWS V14.01,2013-11-24 04:25:00,
2013-11-23 22:30:00,11.7,-5.6,30.68,WNW,292,1.6,1.6,45,0.00,,---,0.00,VWS V14.01,2013-11-24 04:30:00,
2013-11-23 22:35:00,11.5,-5.7,30.68,WNW,292,0.0,1.3,45,0.00,,---,0.00,VWS V14.01,2013-11-24 04:35:00,
2013-11-23 22:40:00,11.5,-5.7,30.65,WSW,248,0.0,1.1,45,0.00,,---,0.00,VWS V14.01,2013-11-24 04:40:00,
2013-11-23 22:45:00,11.5,-5.7,30.65,West,270,0.0,0.0,45,0.00,,---,0.00,VWS V14.01,2013-11-24 04:45:00,
2013-11-23 22:50:00,11.7,-5.6,30.65,NNE,22,1.3,1.3,45,0.00,,---,0.00,VWS V14.01,2013-11-24 04:50:00,
2013-11-23 22:55:00,11.7,-5.6,30.68,North,0,0.0,0.0,45,0.00,,---,0.00,VWS V14.01,2013-11-24 04:55:00,
2013-11-23 23:00:00,11.7,-5.6,30.68,North,0,0.0,0.0,45,0.00,,---,0.00,VWS V14.01,2013-11-24 05:00:00,
2013-11-23 23:01:00,11.7,-5.6,30.68,North,0,0.0,0.0,45,0.00,,---,0.00,VWS V14.01,2013-11-24 05:01:00,
2013-11-23 23:02:00,11.7,-5.6,30.68,WNW,292,0.0,0.0,45,0.00,,---,0.00,VWS V14.01,2013-11-24 05:02:00,
2013-11-23 23:04:00,11.5,-5.7,30.68,WNW,292,0.0,0.0,45,0.00,,---,0.00,VWS V14.01,2013-11-24 05:04:00,
2013-11-23 23:05:00,11.5,-5.7,30.68,WNW,292,0.0,0.0,45,0.00,,---,0.00,VWS V14.01,2013-11-24 05:05:00,
2013-11-23 23:07:00,11.3,-5.9,30.68,WNW,292,0.0,0.0,45,0.00,,---,0.00,VWS V14.01,2013-11-24 05:07:00,
2013-11-23 23:08:00,11.3,-5.9,30.68,West,270,0.0,0.0,45,0.00,,---,0.00,VWS V14.01,2013-11-24 05:08:00,
2013-11-23 23:13:00,11.1,-6.1,30.68,West,270,1.1,2.0,45,0.00,,---,0.00,VWS V14.01,2013-11-24 05:13:00,
2013-11-23 23:18:00,11.1,-6.1,30.68,West,270,0.0,0.0,45,0.00,,---,0.00,VWS V14.01,2013-11-24 05:18:00,
2013-11-23 23:23:00,11.1,-6.1,30.68,SSW,202,0.0,1.3,45,0.00,,---,0.00,VWS V14.01,2013-11-24 05:23:00,
2013-11-23 23:28:00,11.1,-6.1,30.65,West,270,0.0,0.9,45,0.00,,---,0.00,VWS V14.01,2013-11-24 05:28:00,
2013-11-23 23:33:00,11.3,-5.9,30.65,West,270,0.0,0.0,45,0.00,,---,0.00,VWS V14.01,2013-11-24 05:33:00,
2013-11-23 23:38:00,11.3,-5.9,30.65,NNW,338,0.0,0.0,45,0.00,,---,0.00,VWS V14.01,2013-11-24 05:38:00,
2013-11-23 23:43:00,11.1,-6.1,30.65,WNW,292,0.9,1.3,45,0.00,,---,0.00,VWS V14.01,2013-11-24 05:43:00,
2013-11-23 23:48:00,11.1,-6.1,30.65,NNW,338,0.0,0.0,45,0.00,,---,0.00,VWS V14.01,2013-11-24 05:48:00,
2013-11-23 23:53:00,11.3,-5.9,30.65,NNW,338,0.0,0.0,45,0.00,,---,0.00,VWS V14.01,2013-11-24 05:53:00,
2013-11-23 23:58:00,11.1,-6.1,30.65,North,0,0.0,0.0,45,0.00,,---,0.00,VWS V14.01,2013-11-24 05:58:00,